sensor_id;sensor_type;location;lat;lon;timestamp;P1;durP1;ratioP1;P2;durP2;ratioP2
65315;SDS011;51920;53.952;10.292;2023-10-13T00:02:01;8.50;;;4.20;;
65315;SDS011;51920;53.952;10.292;2023-10-13T00:04:31;9.25;;;3.90;;
65315;SDS011;51920;53.952;10.292;2023-10-13T00:07:02;8.57;;;3.78;;
65315;SDS011;51920;53.952;10.292;2023-10-13T00:09:30;10.20;;;3.83;;
65315;SDS011;51920;53.952;10.292;2023-10-13T00:12:07;7.60;;;4.20;;
65315;SDS011;51920;53.952;10.292;2023-10-13T00:14:40;8.63;;;3.80;;
65315;SDS011;51920;53.952;10.292;2023-10-13T00:17:07;8.90;;;3.95;;
65315;SDS011;51920;53.952;10.292;2023-10-13T00:19:36;9.77;;;4.70;;
65315;SDS011;51920;53.952;10.292;2023-10-13T00:22:24;10.17;;;4.03;;
65315;SDS011;51920;53.952;10.292;2023-10-13T00:24:51;9.77;;;4.18;;
65315;SDS011;51920;53.952;10.292;2023-10-13T00:27:24;12.65;;;4.45;;
65315;SDS011;51920;53.952;10.292;2023-10-13T00:29:55;9.20;;;4.03;;
65315;SDS011;51920;53.952;10.292;2023-10-13T00:33:01;10.65;;;4.30;;
65315;SDS011;51920;53.952;10.292;2023-10-13T00:35:28;9.40;;;3.80;;
65315;SDS011;51920;53.952;10.292;2023-10-13T00:38:03;10.85;;;4.22;;
65315;SDS011;51920;53.952;10.292;2023-10-13T00:40:40;10.45;;;4.15;;
65315;SDS011;51920;53.952;10.292;2023-10-13T00:43:07;8.52;;;3.95;;
65315;SDS011;51920;53.952;10.292;2023-10-13T00:45:51;10.57;;;3.80;;
65315;SDS011;51920;53.952;10.292;2023-10-13T00:48:24;7.73;;;3.73;;
65315;SDS011;51920;53.952;10.292;2023-10-13T00:50:56;8.38;;;3.60;;
65315;SDS011;51920;53.952;10.292;2023-10-13T00:53:26;11.20;;;4.38;;
65315;SDS011;51920;53.952;10.292;2023-10-13T00:55:55;11.52;;;3.95;;
65315;SDS011;51920;53.952;10.292;2023-10-13T00:58:22;9.63;;;3.55;;
65315;SDS011;51920;53.952;10.292;2023-10-13T01:00:51;8.90;;;3.93;;
65315;SDS011;51920;53.952;10.292;2023-10-13T01:03:47;9.13;;;3.72;;
65315;SDS011;51920;53.952;10.292;2023-10-13T01:06:17;7.82;;;3.63;;
65315;SDS011;51920;53.952;10.292;2023-10-13T01:08:46;6.90;;;3.95;;
65315;SDS011;51920;53.952;10.292;2023-10-13T01:11:19;10.05;;;3.90;;
65315;SDS011;51920;53.952;10.292;2023-10-13T01:13:50;10.80;;;4.00;;
65315;SDS011;51920;53.952;10.292;2023-10-13T01:16:20;8.73;;;3.95;;
65315;SDS011;51920;53.952;10.292;2023-10-13T01:18:53;10.65;;;4.82;;
65315;SDS011;51920;53.952;10.292;2023-10-13T01:21:26;12.07;;;4.53;;
65315;SDS011;51920;53.952;10.292;2023-10-13T01:23:54;10.38;;;4.50;;
65315;SDS011;51920;53.952;10.292;2023-10-13T01:26:20;10.83;;;4.40;;
65315;SDS011;51920;53.952;10.292;2023-10-13T01:28:51;13.38;;;5.10;;
65315;SDS011;51920;53.952;10.292;2023-10-13T01:31:20;12.30;;;5.30;;
65315;SDS011;51920;53.952;10.292;2023-10-13T01:33:59;10.93;;;4.80;;
65315;SDS011;51920;53.952;10.292;2023-10-13T01:36:28;12.38;;;4.68;;
65315;SDS011;51920;53.952;10.292;2023-10-13T01:39:02;12.00;;;5.03;;
65315;SDS011;51920;53.952;10.292;2023-10-13T01:41:29;13.20;;;4.90;;
65315;SDS011;51920;53.952;10.292;2023-10-13T01:43:57;12.10;;;5.20;;
65315;SDS011;51920;53.952;10.292;2023-10-13T01:46:24;10.75;;;4.95;;
65315;SDS011;51920;53.952;10.292;2023-10-13T01:48:51;11.88;;;4.88;;
65315;SDS011;51920;53.952;10.292;2023-10-13T01:51:20;13.23;;;5.30;;
65315;SDS011;51920;53.952;10.292;2023-10-13T01:53:49;11.38;;;5.30;;
65315;SDS011;51920;53.952;10.292;2023-10-13T01:56:23;11.00;;;4.85;;
65315;SDS011;51920;53.952;10.292;2023-10-13T01:58:51;16.88;;;5.57;;
65315;SDS011;51920;53.952;10.292;2023-10-13T02:01:20;10.20;;;5.45;;
65315;SDS011;51920;53.952;10.292;2023-10-13T02:03:54;12.33;;;4.87;;
65315;SDS011;51920;53.952;10.292;2023-10-13T02:06:31;15.48;;;5.20;;
65315;SDS011;51920;53.952;10.292;2023-10-13T02:09:06;12.85;;;4.80;;
65315;SDS011;51920;53.952;10.292;2023-10-13T02:11:39;10.43;;;5.00;;
65315;SDS011;51920;53.952;10.292;2023-10-13T02:14:08;14.00;;;5.07;;
65315;SDS011;51920;53.952;10.292;2023-10-13T02:16:38;15.00;;;5.83;;
65315;SDS011;51920;53.952;10.292;2023-10-13T02:19:05;12.38;;;5.22;;
65315;SDS011;51920;53.952;10.292;2023-10-13T02:21:35;13.18;;;5.72;;
65315;SDS011;51920;53.952;10.292;2023-10-13T02:24:06;13.95;;;5.50;;
65315;SDS011;51920;53.952;10.292;2023-10-13T02:26:40;11.57;;;5.40;;
65315;SDS011;51920;53.952;10.292;2023-10-13T02:29:07;13.57;;;6.10;;
65315;SDS011;51920;53.952;10.292;2023-10-13T02:31:35;13.65;;;5.57;;
65315;SDS011;51920;53.952;10.292;2023-10-13T02:34:04;19.42;;;6.70;;
65315;SDS011;51920;53.952;10.292;2023-10-13T02:36:35;14.70;;;5.85;;
65315;SDS011;51920;53.952;10.292;2023-10-13T02:39:05;14.43;;;6.20;;
65315;SDS011;51920;53.952;10.292;2023-10-13T02:41:35;18.70;;;6.40;;
65315;SDS011;51920;53.952;10.292;2023-10-13T02:44:05;19.30;;;6.43;;
65315;SDS011;51920;53.952;10.292;2023-10-13T02:46:33;26.17;;;6.97;;
65315;SDS011;51920;53.952;10.292;2023-10-13T02:49:06;26.85;;;7.35;;
65315;SDS011;51920;53.952;10.292;2023-10-13T02:51:37;22.63;;;7.40;;
65315;SDS011;51920;53.952;10.292;2023-10-13T02:54:08;24.67;;;7.40;;
65315;SDS011;51920;53.952;10.292;2023-10-13T02:56:39;24.20;;;7.50;;
65315;SDS011;51920;53.952;10.292;2023-10-13T02:59:15;29.10;;;7.63;;
65315;SDS011;51920;53.952;10.292;2023-10-13T03:01:46;27.50;;;7.78;;
65315;SDS011;51920;53.952;10.292;2023-10-13T03:04:13;25.90;;;7.40;;
65315;SDS011;51920;53.952;10.292;2023-10-13T03:06:40;24.63;;;7.37;;
65315;SDS011;51920;53.952;10.292;2023-10-13T03:09:08;26.52;;;7.78;;
65315;SDS011;51920;53.952;10.292;2023-10-13T03:11:45;28.60;;;8.10;;
65315;SDS011;51920;53.952;10.292;2023-10-13T03:14:16;27.25;;;7.63;;
65315;SDS011;51920;53.952;10.292;2023-10-13T03:16:59;31.63;;;8.05;;
65315;SDS011;51920;53.952;10.292;2023-10-13T03:19:35;30.10;;;8.43;;
65315;SDS011;51920;53.952;10.292;2023-10-13T03:22:07;30.58;;;8.38;;
65315;SDS011;51920;53.952;10.292;2023-10-13T03:24:39;26.00;;;8.90;;
65315;SDS011;51920;53.952;10.292;2023-10-13T03:27:13;27.80;;;7.95;;
65315;SDS011;51920;53.952;10.292;2023-10-13T03:29:48;25.55;;;7.80;;
65315;SDS011;51920;53.952;10.292;2023-10-13T03:32:21;26.03;;;7.83;;
65315;SDS011;51920;53.952;10.292;2023-10-13T03:34:48;35.67;;;8.55;;
65315;SDS011;51920;53.952;10.292;2023-10-13T03:37:26;33.95;;;8.40;;
65315;SDS011;51920;53.952;10.292;2023-10-13T03:40:12;33.03;;;8.32;;
65315;SDS011;51920;53.952;10.292;2023-10-13T03:42:52;35.80;;;8.88;;
65315;SDS011;51920;53.952;10.292;2023-10-13T03:45:33;39.17;;;9.30;;
65315;SDS011;51920;53.952;10.292;2023-10-13T03:48:09;38.53;;;9.48;;
65315;SDS011;51920;53.952;10.292;2023-10-13T03:50:39;38.28;;;9.60;;
65315;SDS011;51920;53.952;10.292;2023-10-13T03:53:14;36.47;;;9.85;;
65315;SDS011;51920;53.952;10.292;2023-10-13T03:55:41;39.97;;;10.63;;
65315;SDS011;51920;53.952;10.292;2023-10-13T03:58:14;47.17;;;11.30;;
65315;SDS011;51920;53.952;10.292;2023-10-13T04:00:43;35.60;;;10.10;;
65315;SDS011;51920;53.952;10.292;2023-10-13T04:03:10;41.95;;;10.98;;
65315;SDS011;51920;53.952;10.292;2023-10-13T04:05:42;47.22;;;10.65;;
65315;SDS011;51920;53.952;10.292;2023-10-13T04:08:12;44.65;;;10.65;;
65315;SDS011;51920;53.952;10.292;2023-10-13T04:10:55;44.87;;;10.77;;
65315;SDS011;51920;53.952;10.292;2023-10-13T04:13:22;38.92;;;10.70;;
65315;SDS011;51920;53.952;10.292;2023-10-13T04:16:08;42.90;;;11.27;;
65315;SDS011;51920;53.952;10.292;2023-10-13T04:18:51;42.13;;;10.43;;
65315;SDS011;51920;53.952;10.292;2023-10-13T04:21:24;34.08;;;9.80;;
65315;SDS011;51920;53.952;10.292;2023-10-13T04:26:52;27.25;;;8.15;;
65315;SDS011;51920;53.952;10.292;2023-10-13T04:29:37;26.33;;;8.38;;
65315;SDS011;51920;53.952;10.292;2023-10-13T04:32:22;25.17;;;7.53;;
65315;SDS011;51920;53.952;10.292;2023-10-13T04:34:56;25.80;;;8.02;;
65315;SDS011;51920;53.952;10.292;2023-10-13T04:37:39;23.53;;;7.13;;
65315;SDS011;51920;53.952;10.292;2023-10-13T04:40:25;20.90;;;6.80;;
65315;SDS011;51920;53.952;10.292;2023-10-13T04:42:52;22.90;;;7.50;;
65315;SDS011;51920;53.952;10.292;2023-10-13T04:45:30;21.27;;;7.65;;
65315;SDS011;51920;53.952;10.292;2023-10-13T04:48:00;23.05;;;7.63;;
65315;SDS011;51920;53.952;10.292;2023-10-13T04:50:45;23.17;;;8.63;;
65315;SDS011;51920;53.952;10.292;2023-10-13T04:53:17;28.60;;;9.00;;
65315;SDS011;51920;53.952;10.292;2023-10-13T04:56:01;25.83;;;8.73;;
65315;SDS011;51920;53.952;10.292;2023-10-13T04:58:31;25.23;;;8.55;;
65315;SDS011;51920;53.952;10.292;2023-10-13T05:01:16;30.33;;;9.05;;
65315;SDS011;51920;53.952;10.292;2023-10-13T05:04:03;24.27;;;8.10;;
65315;SDS011;51920;53.952;10.292;2023-10-13T05:06:56;28.13;;;9.13;;
65315;SDS011;51920;53.952;10.292;2023-10-13T05:09:42;26.00;;;9.07;;
65315;SDS011;51920;53.952;10.292;2023-10-13T05:12:28;23.30;;;8.13;;
65315;SDS011;51920;53.952;10.292;2023-10-13T05:15:13;25.08;;;9.10;;
65315;SDS011;51920;53.952;10.292;2023-10-13T05:18:01;26.50;;;9.20;;
65315;SDS011;51920;53.952;10.292;2023-10-13T05:20:46;27.73;;;8.70;;
65315;SDS011;51920;53.952;10.292;2023-10-13T05:23:32;28.25;;;10.02;;
65315;SDS011;51920;53.952;10.292;2023-10-13T05:26:17;25.33;;;8.85;;
65315;SDS011;51920;53.952;10.292;2023-10-13T05:29:10;28.08;;;9.57;;
65315;SDS011;51920;53.952;10.292;2023-10-13T05:31:56;24.47;;;8.97;;
65315;SDS011;51920;53.952;10.292;2023-10-13T05:34:40;26.88;;;9.73;;
65315;SDS011;51920;53.952;10.292;2023-10-13T05:37:25;31.65;;;10.10;;
65315;SDS011;51920;53.952;10.292;2023-10-13T05:40:10;30.52;;;10.13;;
65315;SDS011;51920;53.952;10.292;2023-10-13T05:42:55;33.97;;;10.60;;
65315;SDS011;51920;53.952;10.292;2023-10-13T05:45:41;36.53;;;11.33;;
65315;SDS011;51920;53.952;10.292;2023-10-13T05:48:26;33.25;;;10.35;;
65315;SDS011;51920;53.952;10.292;2023-10-13T05:51:29;34.30;;;10.65;;
65315;SDS011;51920;53.952;10.292;2023-10-13T05:54:10;39.40;;;12.10;;
65315;SDS011;51920;53.952;10.292;2023-10-13T05:59:30;38.83;;;12.47;;
65315;SDS011;51920;53.952;10.292;2023-10-13T06:02:17;45.78;;;13.48;;
65315;SDS011;51920;53.952;10.292;2023-10-13T06:05:04;46.17;;;13.75;;
65315;SDS011;51920;53.952;10.292;2023-10-13T06:07:54;48.35;;;14.57;;
65315;SDS011;51920;53.952;10.292;2023-10-13T06:10:40;52.03;;;15.38;;
65315;SDS011;51920;53.952;10.292;2023-10-13T06:13:28;62.07;;;16.87;;
65315;SDS011;51920;53.952;10.292;2023-10-13T06:16:15;56.47;;;16.55;;
65315;SDS011;51920;53.952;10.292;2023-10-13T06:19:01;57.03;;;17.08;;
65315;SDS011;51920;53.952;10.292;2023-10-13T06:21:47;64.35;;;18.70;;
65315;SDS011;51920;53.952;10.292;2023-10-13T06:24:33;61.25;;;18.13;;
65315;SDS011;51920;53.952;10.292;2023-10-13T06:27:18;61.33;;;17.33;;
65315;SDS011;51920;53.952;10.292;2023-10-13T06:30:03;64.47;;;18.58;;
65315;SDS011;51920;53.952;10.292;2023-10-13T06:32:31;66.57;;;18.40;;
65315;SDS011;51920;53.952;10.292;2023-10-13T06:34:59;65.55;;;19.55;;
65315;SDS011;51920;53.952;10.292;2023-10-13T06:37:45;66.30;;;18.75;;
65315;SDS011;51920;53.952;10.292;2023-10-13T06:40:12;64.60;;;19.17;;
65315;SDS011;51920;53.952;10.292;2023-10-13T06:42:52;57.10;;;17.83;;
65315;SDS011;51920;53.952;10.292;2023-10-13T06:45:21;62.97;;;19.05;;
65315;SDS011;51920;53.952;10.292;2023-10-13T06:47:48;64.53;;;19.73;;
65315;SDS011;51920;53.952;10.292;2023-10-13T06:50:19;57.45;;;18.65;;
65315;SDS011;51920;53.952;10.292;2023-10-13T06:52:50;60.93;;;19.10;;
65315;SDS011;51920;53.952;10.292;2023-10-13T06:55:21;58.78;;;18.55;;
65315;SDS011;51920;53.952;10.292;2023-10-13T06:57:54;57.60;;;18.95;;
65315;SDS011;51920;53.952;10.292;2023-10-13T07:00:27;55.55;;;18.25;;
65315;SDS011;51920;53.952;10.292;2023-10-13T07:02:56;54.17;;;18.10;;
65315;SDS011;51920;53.952;10.292;2023-10-13T07:05:46;57.63;;;18.77;;
65315;SDS011;51920;53.952;10.292;2023-10-13T07:08:16;58.45;;;19.02;;
65315;SDS011;51920;53.952;10.292;2023-10-13T07:10:55;59.75;;;18.85;;
65315;SDS011;51920;53.952;10.292;2023-10-13T07:13:29;59.90;;;18.60;;
65315;SDS011;51920;53.952;10.292;2023-10-13T07:15:55;55.25;;;18.05;;
65315;SDS011;51920;53.952;10.292;2023-10-13T07:18:35;54.53;;;18.43;;
65315;SDS011;51920;53.952;10.292;2023-10-13T07:21:16;57.70;;;18.50;;
65315;SDS011;51920;53.952;10.292;2023-10-13T07:23:43;52.17;;;18.00;;
65315;SDS011;51920;53.952;10.292;2023-10-13T07:26:27;57.85;;;18.85;;
65315;SDS011;51920;53.952;10.292;2023-10-13T07:28:55;51.38;;;17.90;;
65315;SDS011;51920;53.952;10.292;2023-10-13T07:31:21;58.30;;;19.43;;
65315;SDS011;51920;53.952;10.292;2023-10-13T07:33:53;53.22;;;18.80;;
65315;SDS011;51920;53.952;10.292;2023-10-13T07:36:31;54.25;;;18.63;;
65315;SDS011;51920;53.952;10.292;2023-10-13T07:39:05;54.30;;;18.63;;
65315;SDS011;51920;53.952;10.292;2023-10-13T07:41:52;57.58;;;18.77;;
65315;SDS011;51920;53.952;10.292;2023-10-13T07:44:30;53.03;;;18.47;;
65315;SDS011;51920;53.952;10.292;2023-10-13T07:47:01;50.60;;;18.42;;
65315;SDS011;51920;53.952;10.292;2023-10-13T07:49:36;52.30;;;18.42;;
65315;SDS011;51920;53.952;10.292;2023-10-13T07:52:10;52.08;;;18.65;;
65315;SDS011;51920;53.952;10.292;2023-10-13T07:54:47;48.13;;;18.67;;
65315;SDS011;51920;53.952;10.292;2023-10-13T07:57:34;46.47;;;18.40;;
65315;SDS011;51920;53.952;10.292;2023-10-13T08:00:00;42.72;;;17.55;;
65315;SDS011;51920;53.952;10.292;2023-10-13T08:02:39;47.97;;;17.98;;
65315;SDS011;51920;53.952;10.292;2023-10-13T08:05:16;47.67;;;17.95;;
65315;SDS011;51920;53.952;10.292;2023-10-13T08:08:05;48.90;;;18.17;;
65315;SDS011;51920;53.952;10.292;2023-10-13T08:10:41;47.83;;;18.27;;
65315;SDS011;51920;53.952;10.292;2023-10-13T08:13:09;42.08;;;16.95;;
65315;SDS011;51920;53.952;10.292;2023-10-13T08:15:42;44.47;;;17.80;;
65315;SDS011;51920;53.952;10.292;2023-10-13T08:18:14;43.83;;;17.17;;
65315;SDS011;51920;53.952;10.292;2023-10-13T08:21:02;40.28;;;16.50;;
65315;SDS011;51920;53.952;10.292;2023-10-13T08:23:30;45.97;;;18.10;;
65315;SDS011;51920;53.952;10.292;2023-10-13T08:26:15;40.22;;;16.48;;
65315;SDS011;51920;53.952;10.292;2023-10-13T08:29:02;40.92;;;16.25;;
65315;SDS011;51920;53.952;10.292;2023-10-13T08:31:46;36.97;;;16.35;;
65315;SDS011;51920;53.952;10.292;2023-10-13T08:34:31;35.30;;;15.15;;
65315;SDS011;51920;53.952;10.292;2023-10-13T08:37:10;32.07;;;14.57;;
65315;SDS011;51920;53.952;10.292;2023-10-13T08:42:41;31.45;;;13.45;;
65315;SDS011;51920;53.952;10.292;2023-10-13T08:45:13;31.02;;;13.30;;
65315;SDS011;51920;53.952;10.292;2023-10-13T08:48:10;27.73;;;12.02;;
65315;SDS011;51920;53.952;10.292;2023-10-13T08:50:44;38.07;;;18.07;;
65315;SDS011;51920;53.952;10.292;2023-10-13T08:56:03;21.45;;;10.45;;
65315;SDS011;51920;53.952;10.292;2023-10-13T08:58:48;19.73;;;10.02;;
65315;SDS011;51920;53.952;10.292;2023-10-13T09:01:34;20.23;;;9.27;;
65315;SDS011;51920;53.952;10.292;2023-10-13T09:04:02;17.57;;;8.93;;
65315;SDS011;51920;53.952;10.292;2023-10-13T09:07:03;15.40;;;8.15;;
65315;SDS011;51920;53.952;10.292;2023-10-13T09:12:14;13.55;;;7.53;;
65315;SDS011;51920;53.952;10.292;2023-10-13T09:14:43;12.52;;;7.93;;
65315;SDS011;51920;53.952;10.292;2023-10-13T09:17:12;12.20;;;7.37;;
65315;SDS011;51920;53.952;10.292;2023-10-13T09:22:20;11.93;;;7.22;;
65315;SDS011;51920;53.952;10.292;2023-10-13T09:24:54;13.07;;;8.07;;
65315;SDS011;51920;53.952;10.292;2023-10-13T09:27:28;12.10;;;7.07;;
65315;SDS011;51920;53.952;10.292;2023-10-13T09:29:59;12.70;;;7.33;;
65315;SDS011;51920;53.952;10.292;2023-10-13T09:32:34;11.98;;;7.10;;
65315;SDS011;51920;53.952;10.292;2023-10-13T09:35:16;12.13;;;7.38;;
65315;SDS011;51920;53.952;10.292;2023-10-13T09:37:52;11.68;;;6.30;;
65315;SDS011;51920;53.952;10.292;2023-10-13T09:40:23;11.18;;;6.47;;
65315;SDS011;51920;53.952;10.292;2023-10-13T09:43:13;12.90;;;7.10;;
65315;SDS011;51920;53.952;10.292;2023-10-13T09:45:47;10.77;;;6.43;;
65315;SDS011;51920;53.952;10.292;2023-10-13T09:48:47;9.65;;;5.47;;
65315;SDS011;51920;53.952;10.292;2023-10-13T09:51:30;11.18;;;5.80;;
65315;SDS011;51920;53.952;10.292;2023-10-13T09:54:06;8.73;;;5.75;;
65315;SDS011;51920;53.952;10.292;2023-10-13T09:56:48;7.97;;;5.67;;
65315;SDS011;51920;53.952;10.292;2023-10-13T09:59:22;9.25;;;6.20;;
65315;SDS011;51920;53.952;10.292;2023-10-13T10:02:05;8.90;;;5.55;;
65315;SDS011;51920;53.952;10.292;2023-10-13T10:04:51;9.13;;;5.80;;
65315;SDS011;51920;53.952;10.292;2023-10-13T10:07:26;9.40;;;6.00;;
65315;SDS011;51920;53.952;10.292;2023-10-13T10:09:56;9.97;;;6.37;;
65315;SDS011;51920;53.952;10.292;2023-10-13T10:15:35;11.13;;;6.18;;
65315;SDS011;51920;53.952;10.292;2023-10-13T10:18:22;10.48;;;6.15;;
65315;SDS011;51920;53.952;10.292;2023-10-13T10:20:51;9.63;;;6.50;;
65315;SDS011;51920;53.952;10.292;2023-10-13T10:23:34;8.93;;;5.87;;
65315;SDS011;51920;53.952;10.292;2023-10-13T10:26:12;9.52;;;6.28;;
65315;SDS011;51920;53.952;10.292;2023-10-13T10:28:47;9.32;;;6.28;;
65315;SDS011;51920;53.952;10.292;2023-10-13T10:31:14;10.57;;;6.47;;
65315;SDS011;51920;53.952;10.292;2023-10-13T10:33:43;10.32;;;6.40;;
65315;SDS011;51920;53.952;10.292;2023-10-13T10:36:11;9.67;;;5.90;;
65315;SDS011;51920;53.952;10.292;2023-10-13T10:38:53;10.95;;;6.20;;
65315;SDS011;51920;53.952;10.292;2023-10-13T10:41:29;10.13;;;6.22;;
65315;SDS011;51920;53.952;10.292;2023-10-13T10:44:22;11.25;;;6.85;;
65315;SDS011;51920;53.952;10.292;2023-10-13T10:47:13;11.95;;;6.43;;
65315;SDS011;51920;53.952;10.292;2023-10-13T10:50:03;10.03;;;6.80;;
65315;SDS011;51920;53.952;10.292;2023-10-13T10:52:52;10.55;;;6.63;;
65315;SDS011;51920;53.952;10.292;2023-10-13T10:55:23;12.85;;;6.60;;
65315;SDS011;51920;53.952;10.292;2023-10-13T10:57:58;12.32;;;6.88;;
65315;SDS011;51920;53.952;10.292;2023-10-13T11:00:30;12.75;;;7.03;;
65315;SDS011;51920;53.952;10.292;2023-10-13T11:03:12;12.80;;;7.07;;
65315;SDS011;51920;53.952;10.292;2023-10-13T11:05:45;13.85;;;7.10;;
65315;SDS011;51920;53.952;10.292;2023-10-13T11:08:22;13.50;;;6.82;;
65315;SDS011;51920;53.952;10.292;2023-10-13T11:10:58;10.77;;;6.47;;
65315;SDS011;51920;53.952;10.292;2023-10-13T11:13:27;10.93;;;6.95;;
65315;SDS011;51920;53.952;10.292;2023-10-13T11:15:58;9.77;;;6.33;;
65315;SDS011;51920;53.952;10.292;2023-10-13T11:18:31;10.60;;;6.40;;
65315;SDS011;51920;53.952;10.292;2023-10-13T11:21:04;12.40;;;6.30;;
65315;SDS011;51920;53.952;10.292;2023-10-13T11:23:33;11.57;;;6.45;;
65315;SDS011;51920;53.952;10.292;2023-10-13T11:26:02;13.75;;;6.85;;
65315;SDS011;51920;53.952;10.292;2023-10-13T11:28:31;10.90;;;6.23;;
65315;SDS011;51920;53.952;10.292;2023-10-13T11:30:58;12.82;;;5.97;;
65315;SDS011;51920;53.952;10.292;2023-10-13T11:33:26;14.20;;;6.88;;
65315;SDS011;51920;53.952;10.292;2023-10-13T11:35:56;13.65;;;6.22;;
65315;SDS011;51920;53.952;10.292;2023-10-13T11:38:24;15.25;;;6.05;;
65315;SDS011;51920;53.952;10.292;2023-10-13T11:41:15;12.50;;;6.57;;
65315;SDS011;51920;53.952;10.292;2023-10-13T11:43:45;13.43;;;6.30;;
65315;SDS011;51920;53.952;10.292;2023-10-13T11:49:08;13.48;;;6.28;;
65315;SDS011;51920;53.952;10.292;2023-10-13T11:51:42;11.90;;;6.47;;
65315;SDS011;51920;53.952;10.292;2023-10-13T11:54:16;12.43;;;6.50;;
65315;SDS011;51920;53.952;10.292;2023-10-13T11:56:45;15.45;;;6.53;;
65315;SDS011;51920;53.952;10.292;2023-10-13T11:59:12;11.98;;;6.60;;
65315;SDS011;51920;53.952;10.292;2023-10-13T12:04:51;13.63;;;6.95;;
65315;SDS011;51920;53.952;10.292;2023-10-13T12:07:18;11.77;;;7.07;;
65315;SDS011;51920;53.952;10.292;2023-10-13T12:09:49;10.48;;;7.15;;
65315;SDS011;51920;53.952;10.292;2023-10-13T12:12:26;11.98;;;6.97;;
65315;SDS011;51920;53.952;10.292;2023-10-13T12:14:54;15.40;;;7.07;;
65315;SDS011;51920;53.952;10.292;2023-10-13T12:17:22;13.73;;;7.28;;
65315;SDS011;51920;53.952;10.292;2023-10-13T12:19:54;12.27;;;7.40;;
65315;SDS011;51920;53.952;10.292;2023-10-13T12:22:23;12.55;;;7.32;;
65315;SDS011;51920;53.952;10.292;2023-10-13T12:25:02;12.65;;;7.03;;
65315;SDS011;51920;53.952;10.292;2023-10-13T12:27:45;15.70;;;7.40;;
65315;SDS011;51920;53.952;10.292;2023-10-13T12:30:14;12.02;;;7.47;;
65315;SDS011;51920;53.952;10.292;2023-10-13T12:32:49;10.30;;;7.03;;
65315;SDS011;51920;53.952;10.292;2023-10-13T12:35:32;15.68;;;7.22;;
65315;SDS011;51920;53.952;10.292;2023-10-13T12:38:11;12.07;;;6.53;;
65315;SDS011;51920;53.952;10.292;2023-10-13T12:41:06;11.80;;;6.70;;
65315;SDS011;51920;53.952;10.292;2023-10-13T12:43:59;13.32;;;6.90;;
65315;SDS011;51920;53.952;10.292;2023-10-13T12:46:48;12.63;;;6.37;;
65315;SDS011;51920;53.952;10.292;2023-10-13T12:49:34;11.73;;;5.95;;
65315;SDS011;51920;53.952;10.292;2023-10-13T12:52:18;11.60;;;6.15;;
65315;SDS011;51920;53.952;10.292;2023-10-13T12:54:58;11.00;;;5.78;;
65315;SDS011;51920;53.952;10.292;2023-10-13T12:57:27;12.13;;;5.90;;
65315;SDS011;51920;53.952;10.292;2023-10-13T12:59:54;11.83;;;5.80;;
65315;SDS011;51920;53.952;10.292;2023-10-13T13:02:22;13.43;;;6.10;;
65315;SDS011;51920;53.952;10.292;2023-10-13T13:04:51;12.50;;;6.00;;
65315;SDS011;51920;53.952;10.292;2023-10-13T13:07:28;13.02;;;5.80;;
65315;SDS011;51920;53.952;10.292;2023-10-13T13:09:56;11.80;;;5.80;;
65315;SDS011;51920;53.952;10.292;2023-10-13T13:12:26;12.90;;;5.90;;
65315;SDS011;51920;53.952;10.292;2023-10-13T13:14:56;9.60;;;5.13;;
65315;SDS011;51920;53.952;10.292;2023-10-13T13:17:22;12.75;;;5.15;;
65315;SDS011;51920;53.952;10.292;2023-10-13T13:19:50;8.40;;;4.50;;
65315;SDS011;51920;53.952;10.292;2023-10-13T13:22:16;8.63;;;4.72;;
65315;SDS011;51920;53.952;10.292;2023-10-13T13:24:44;10.47;;;5.07;;
65315;SDS011;51920;53.952;10.292;2023-10-13T13:27:11;9.25;;;5.05;;
65315;SDS011;51920;53.952;10.292;2023-10-13T13:29:45;12.50;;;5.13;;
65315;SDS011;51920;53.952;10.292;2023-10-13T13:32:12;10.73;;;5.13;;
65315;SDS011;51920;53.952;10.292;2023-10-13T13:34:50;9.40;;;4.57;;
65315;SDS011;51920;53.952;10.292;2023-10-13T13:37:40;10.67;;;4.80;;
65315;SDS011;51920;53.952;10.292;2023-10-13T13:40:09;11.35;;;4.68;;
65315;SDS011;51920;53.952;10.292;2023-10-13T13:42:42;10.65;;;5.20;;
65315;SDS011;51920;53.952;10.292;2023-10-13T13:45:16;11.52;;;4.90;;
65315;SDS011;51920;53.952;10.292;2023-10-13T13:47:48;11.63;;;4.70;;
65315;SDS011;51920;53.952;10.292;2023-10-13T13:50:22;12.73;;;5.10;;
65315;SDS011;51920;53.952;10.292;2023-10-13T13:52:55;10.65;;;5.20;;
65315;SDS011;51920;53.952;10.292;2023-10-13T13:55:22;10.82;;;5.07;;
65315;SDS011;51920;53.952;10.292;2023-10-13T13:57:50;13.68;;;5.32;;
65315;SDS011;51920;53.952;10.292;2023-10-13T14:00:17;11.23;;;4.78;;
65315;SDS011;51920;53.952;10.292;2023-10-13T14:03:06;12.43;;;5.10;;
65315;SDS011;51920;53.952;10.292;2023-10-13T14:05:50;11.55;;;5.07;;
65315;SDS011;51920;53.952;10.292;2023-10-13T14:08:16;14.05;;;5.47;;
65315;SDS011;51920;53.952;10.292;2023-10-13T14:10:43;10.05;;;5.20;;
65315;SDS011;51920;53.952;10.292;2023-10-13T14:13:30;10.88;;;5.30;;
65315;SDS011;51920;53.952;10.292;2023-10-13T14:16:15;10.80;;;5.00;;
65315;SDS011;51920;53.952;10.292;2023-10-13T14:19:03;13.20;;;5.18;;
65315;SDS011;51920;53.952;10.292;2023-10-13T14:21:37;14.13;;;5.80;;
65315;SDS011;51920;53.952;10.292;2023-10-13T14:24:04;10.30;;;5.38;;
65315;SDS011;51920;53.952;10.292;2023-10-13T14:26:40;12.30;;;5.75;;
65315;SDS011;51920;53.952;10.292;2023-10-13T14:29:09;14.97;;;5.70;;
65315;SDS011;51920;53.952;10.292;2023-10-13T14:31:40;14.75;;;5.90;;
65315;SDS011;51920;53.952;10.292;2023-10-13T14:34:07;15.27;;;6.07;;
65315;SDS011;51920;53.952;10.292;2023-10-13T14:36:35;13.77;;;5.90;;
65315;SDS011;51920;53.952;10.292;2023-10-13T14:39:05;10.90;;;5.90;;
65315;SDS011;51920;53.952;10.292;2023-10-13T14:41:36;15.53;;;5.97;;
65315;SDS011;51920;53.952;10.292;2023-10-13T14:44:04;14.40;;;6.30;;
65315;SDS011;51920;53.952;10.292;2023-10-13T14:46:34;14.43;;;6.22;;
65315;SDS011;51920;53.952;10.292;2023-10-13T14:49:07;11.77;;;5.90;;
65315;SDS011;51920;53.952;10.292;2023-10-13T14:51:39;13.13;;;5.57;;
65315;SDS011;51920;53.952;10.292;2023-10-13T14:54:06;10.87;;;5.87;;
65315;SDS011;51920;53.952;10.292;2023-10-13T14:56:33;16.30;;;5.82;;
65315;SDS011;51920;53.952;10.292;2023-10-13T14:59:00;13.65;;;5.85;;
65315;SDS011;51920;53.952;10.292;2023-10-13T15:01:30;13.80;;;6.25;;
65315;SDS011;51920;53.952;10.292;2023-10-13T15:03:58;11.38;;;5.53;;
65315;SDS011;51920;53.952;10.292;2023-10-13T15:06:27;13.50;;;5.93;;
65315;SDS011;51920;53.952;10.292;2023-10-13T15:08:58;10.65;;;5.90;;
65315;SDS011;51920;53.952;10.292;2023-10-13T15:11:27;11.23;;;5.65;;
65315;SDS011;51920;53.952;10.292;2023-10-13T15:14:07;14.07;;;5.80;;
65315;SDS011;51920;53.952;10.292;2023-10-13T15:16:34;13.02;;;5.90;;
65315;SDS011;51920;53.952;10.292;2023-10-13T15:19:01;12.20;;;5.70;;
65315;SDS011;51920;53.952;10.292;2023-10-13T15:21:30;12.07;;;5.70;;
65315;SDS011;51920;53.952;10.292;2023-10-13T15:24:07;11.55;;;5.70;;
65315;SDS011;51920;53.952;10.292;2023-10-13T15:26:44;13.45;;;6.10;;
65315;SDS011;51920;53.952;10.292;2023-10-13T15:29:17;12.02;;;5.82;;
65315;SDS011;51920;53.952;10.292;2023-10-13T15:31:51;11.83;;;5.97;;
65315;SDS011;51920;53.952;10.292;2023-10-13T15:34:28;13.02;;;6.35;;